sensor_id;sensor_type;location;lat;lon;timestamp;pressure;altitude;pressure_sealevel;temperature;humidity
32761;BME280;19126;47.472;7.850;2022-08-05T00:00:32;96392.41;;;21.78;87.73
32761;BME280;19126;47.472;7.850;2022-08-05T00:02:59;96387.63;;;21.80;88.12
32761;BME280;19126;47.472;7.850;2022-08-05T00:05:26;96387.88;;;21.78;90.58
32761;BME280;19126;47.472;7.850;2022-08-05T00:07:54;96393.22;;;21.78;92.14
32761;BME280;19126;47.472;7.850;2022-08-05T00:10:21;96397.75;;;21.78;93.77
32761;BME280;19126;47.472;7.850;2022-08-05T00:12:48;96435.75;;;21.80;92.68
32761;BME280;19126;47.472;7.850;2022-08-05T00:15:17;96420.72;;;21.74;91.57
32761;BME280;19126;47.472;7.850;2022-08-05T00:17:44;96413.25;;;21.76;90.06
32761;BME280;19126;47.472;7.850;2022-08-05T00:20:11;96415.19;;;21.80;91.53
32761;BME280;19126;47.472;7.850;2022-08-05T00:22:39;96399.13;;;21.80;87.60
32761;BME280;19126;47.472;7.850;2022-08-05T00:25:07;96405.31;;;21.86;87.70
32761;BME280;19126;47.472;7.850;2022-08-05T00:27:34;96409.63;;;21.87;89.43
32761;BME280;19126;47.472;7.850;2022-08-05T00:30:01;96413.91;;;21.88;89.00
32761;BME280;19126;47.472;7.850;2022-08-05T00:32:30;96411.78;;;21.90;89.07
32761;BME280;19126;47.472;7.850;2022-08-05T00:34:58;96413.66;;;21.90;88.58
32761;BME280;19126;47.472;7.850;2022-08-05T00:37:25;96417.91;;;21.86;89.62
32761;BME280;19126;47.472;7.850;2022-08-05T00:39:52;96408.50;;;21.83;88.45
32761;BME280;19126;47.472;7.850;2022-08-05T00:42:30;96408.78;;;21.81;90.00
32761;BME280;19126;47.472;7.850;2022-08-05T00:44:57;96424.00;;;21.81;89.69
32761;BME280;19126;47.472;7.850;2022-08-05T00:47:25;96420.53;;;21.80;87.77
32761;BME280;19126;47.472;7.850;2022-08-05T00:49:53;96417.84;;;21.80;89.75
32761;BME280;19126;47.472;7.850;2022-08-05T00:52:21;96423.44;;;21.79;88.56
32761;BME280;19126;47.472;7.850;2022-08-05T00:54:48;96429.06;;;21.77;89.37
32761;BME280;19126;47.472;7.850;2022-08-05T00:57:16;96429.56;;;21.74;90.71
32761;BME280;19126;47.472;7.850;2022-08-05T00:59:43;96417.19;;;21.68;91.64
32761;BME280;19126;47.472;7.850;2022-08-05T01:02:10;96422.22;;;21.64;92.06
32761;BME280;19126;47.472;7.850;2022-08-05T01:04:37;96417.84;;;21.58;92.41
32761;BME280;19126;47.472;7.850;2022-08-05T01:07:06;96420.44;;;21.53;93.33
32761;BME280;19126;47.472;7.850;2022-08-05T01:09:34;96423.88;;;21.48;90.44
32761;BME280;19126;47.472;7.850;2022-08-05T01:12:06;96427.28;;;21.44;91.00
32761;BME280;19126;47.472;7.850;2022-08-05T01:14:40;96425.13;;;21.41;90.95
32761;BME280;19126;47.472;7.850;2022-08-05T01:17:15;96422.56;;;21.29;92.50
32761;BME280;19126;47.472;7.850;2022-08-05T01:19:52;96437.78;;;21.28;92.85
32761;BME280;19126;47.472;7.850;2022-08-05T01:22:31;96432.72;;;21.27;91.80
32761;BME280;19126;47.472;7.850;2022-08-05T01:28:32;96434.91;;;21.13;94.25
32761;BME280;19126;47.472;7.850;2022-08-05T01:31:08;96435.06;;;21.06;95.10
32761;BME280;19126;47.472;7.850;2022-08-05T01:33:42;96433.47;;;21.05;93.39
32761;BME280;19126;47.472;7.850;2022-08-05T01:36:16;96430.28;;;21.08;90.92
32761;BME280;19126;47.472;7.850;2022-08-05T01:38:46;96436.63;;;21.02;92.17
32761;BME280;19126;47.472;7.850;2022-08-05T01:41:17;96442.72;;;20.97;94.01
32761;BME280;19126;47.472;7.850;2022-08-05T01:43:50;96441.31;;;20.94;93.88
32761;BME280;19126;47.472;7.850;2022-08-05T01:46:19;96450.16;;;20.95;91.55
32761;BME280;19126;47.472;7.850;2022-08-05T01:48:48;96438.44;;;20.96;90.60
32761;BME280;19126;47.472;7.850;2022-08-05T01:51:17;96445.63;;;20.96;90.35
32761;BME280;19126;47.472;7.850;2022-08-05T01:53:48;96450.94;;;20.96;91.12
32761;BME280;19126;47.472;7.850;2022-08-05T01:56:17;96447.72;;;20.93;91.69
32761;BME280;19126;47.472;7.850;2022-08-05T01:58:45;96443.69;;;20.91;93.26
32761;BME280;19126;47.472;7.850;2022-08-05T02:01:17;96440.69;;;20.87;92.39
32761;BME280;19126;47.472;7.850;2022-08-05T02:03:46;96443.34;;;20.87;91.82
32761;BME280;19126;47.472;7.850;2022-08-05T02:06:15;96450.56;;;20.87;92.93
32761;BME280;19126;47.472;7.850;2022-08-05T02:08:42;96442.50;;;20.82;94.40
32761;BME280;19126;47.472;7.850;2022-08-05T02:11:11;96447.72;;;20.76;94.09
32761;BME280;19126;47.472;7.850;2022-08-05T02:13:46;96443.44;;;20.75;93.81
32761;BME280;19126;47.472;7.850;2022-08-05T02:16:22;96441.00;;;20.74;94.40
32761;BME280;19126;47.472;7.850;2022-08-05T02:18:55;96437.69;;;20.67;94.08
32761;BME280;19126;47.472;7.850;2022-08-05T02:21:29;96441.19;;;20.67;96.02
32761;BME280;19126;47.472;7.850;2022-08-05T02:24:03;96440.34;;;20.67;95.21
32761;BME280;19126;47.472;7.850;2022-08-05T02:26:38;96445.13;;;20.64;95.76
32761;BME280;19126;47.472;7.850;2022-08-05T02:29:10;96431.00;;;20.64;94.13
32761;BME280;19126;47.472;7.850;2022-08-05T02:31:40;96433.97;;;20.68;93.97
32761;BME280;19126;47.472;7.850;2022-08-05T02:34:09;96430.81;;;20.71;94.80
32761;BME280;19126;47.472;7.850;2022-08-05T02:36:43;96436.97;;;20.71;93.76
32761;BME280;19126;47.472;7.850;2022-08-05T02:39:12;96431.38;;;20.73;92.31
32761;BME280;19126;47.472;7.850;2022-08-05T02:41:42;96434.16;;;20.78;92.16
32761;BME280;19126;47.472;7.850;2022-08-05T02:44:11;96429.63;;;20.78;94.75
32761;BME280;19126;47.472;7.850;2022-08-05T02:46:43;96437.63;;;20.78;94.66
32761;BME280;19126;47.472;7.850;2022-08-05T02:49:13;96430.44;;;20.79;94.77
32761;BME280;19126;47.472;7.850;2022-08-05T02:51:43;96429.53;;;20.73;93.40
32761;BME280;19126;47.472;7.850;2022-08-05T02:54:12;96430.09;;;20.75;94.81
32761;BME280;19126;47.472;7.850;2022-08-05T02:56:41;96437.84;;;20.77;94.97
32761;BME280;19126;47.472;7.850;2022-08-05T02:59:10;96434.38;;;20.76;93.86
32761;BME280;19126;47.472;7.850;2022-08-05T03:01:40;96433.09;;;20.79;93.26
32761;BME280;19126;47.472;7.850;2022-08-05T03:04:13;96437.16;;;20.82;93.59
32761;BME280;19126;47.472;7.850;2022-08-05T03:06:41;96440.88;;;20.81;92.07
32761;BME280;19126;47.472;7.850;2022-08-05T03:09:12;96444.09;;;20.83;94.00
32761;BME280;19126;47.472;7.850;2022-08-05T03:11:42;96438.66;;;20.77;95.04
32761;BME280;19126;47.472;7.850;2022-08-05T03:14:10;96438.66;;;20.77;94.20
32761;BME280;19126;47.472;7.850;2022-08-05T03:16:37;96438.44;;;20.79;93.89
32761;BME280;19126;47.472;7.850;2022-08-05T03:19:06;96428.13;;;20.71;94.67
32761;BME280;19126;47.472;7.850;2022-08-05T03:21:33;96427.09;;;20.72;95.14
32761;BME280;19126;47.472;7.850;2022-08-05T03:24:01;96426.53;;;20.70;94.99
32761;BME280;19126;47.472;7.850;2022-08-05T03:26:29;96422.72;;;20.65;95.36
32761;BME280;19126;47.472;7.850;2022-08-05T03:28:56;96427.19;;;20.60;97.31
32761;BME280;19126;47.472;7.850;2022-08-05T03:31:24;96417.72;;;20.52;97.84
32761;BME280;19126;47.472;7.850;2022-08-05T03:33:52;96416.66;;;20.53;97.88
32761;BME280;19126;47.472;7.850;2022-08-05T03:36:22;96414.47;;;20.50;95.82
32761;BME280;19126;47.472;7.850;2022-08-05T03:38:49;96415.78;;;20.47;96.77
32761;BME280;19126;47.472;7.850;2022-08-05T03:41:17;96416.00;;;20.46;97.91
32761;BME280;19126;47.472;7.850;2022-08-05T03:43:44;96413.91;;;20.48;98.64
32761;BME280;19126;47.472;7.850;2022-08-05T03:46:11;96414.47;;;20.50;96.50
32761;BME280;19126;47.472;7.850;2022-08-05T03:48:38;96416.25;;;20.61;95.00
32761;BME280;19126;47.472;7.850;2022-08-05T03:51:11;96412.88;;;20.66;93.63
32761;BME280;19126;47.472;7.850;2022-08-05T03:53:48;96420.94;;;20.71;96.17
32761;BME280;19126;47.472;7.850;2022-08-05T03:56:23;96414.31;;;20.74;95.20
32761;BME280;19126;47.472;7.850;2022-08-05T03:58:54;96412.88;;;20.83;95.01
32761;BME280;19126;47.472;7.850;2022-08-05T04:01:23;96414.97;;;20.81;95.92
32761;BME280;19126;47.472;7.850;2022-08-05T04:03:52;96411.31;;;20.87;94.35
32761;BME280;19126;47.472;7.850;2022-08-05T04:06:21;96420.88;;;20.83;96.15
32761;BME280;19126;47.472;7.850;2022-08-05T04:08:50;96414.88;;;20.76;97.40
32761;BME280;19126;47.472;7.850;2022-08-05T04:11:18;96419.41;;;20.75;98.24
32761;BME280;19126;47.472;7.850;2022-08-05T04:13:45;96423.63;;;20.71;97.38
32761;BME280;19126;47.472;7.850;2022-08-05T04:16:13;96426.78;;;20.68;97.30
32761;BME280;19126;47.472;7.850;2022-08-05T04:18:44;96422.72;;;20.65;97.75
32761;BME280;19126;47.472;7.850;2022-08-05T04:21:11;96416.03;;;20.63;99.82
32761;BME280;19126;47.472;7.850;2022-08-05T04:23:39;96417.56;;;20.59;98.40
32761;BME280;19126;47.472;7.850;2022-08-05T04:26:07;96420.38;;;20.69;98.20
32761;BME280;19126;47.472;7.850;2022-08-05T04:28:35;96419.63;;;20.74;99.07
32761;BME280;19126;47.472;7.850;2022-08-05T04:31:02;96418.03;;;20.73;98.62
32761;BME280;19126;47.472;7.850;2022-08-05T04:33:29;96422.66;;;20.77;98.87
32761;BME280;19126;47.472;7.850;2022-08-05T04:35:56;96421.34;;;20.80;99.43
32761;BME280;19126;47.472;7.850;2022-08-05T04:38:25;96423.25;;;20.79;98.03
32761;BME280;19126;47.472;7.850;2022-08-05T04:40:53;96421.94;;;20.82;100.00
32761;BME280;19126;47.472;7.850;2022-08-05T04:43:22;96419.81;;;20.84;98.85
32761;BME280;19126;47.472;7.850;2022-08-05T04:45:49;96418.75;;;20.85;99.49
32761;BME280;19126;47.472;7.850;2022-08-05T04:48:16;96419.31;;;20.87;100.00
32761;BME280;19126;47.472;7.850;2022-08-05T04:50:47;96419.91;;;20.89;100.00
32761;BME280;19126;47.472;7.850;2022-08-05T04:53:17;96415.13;;;20.91;100.00
32761;BME280;19126;47.472;7.850;2022-08-05T04:55:45;96417.28;;;20.94;99.40
32761;BME280;19126;47.472;7.850;2022-08-05T04:58:16;96409.13;;;21.01;98.87
32761;BME280;19126;47.472;7.850;2022-08-05T05:00:45;96423.81;;;21.04;100.00
32761;BME280;19126;47.472;7.850;2022-08-05T05:03:12;96422.34;;;21.13;100.00
32761;BME280;19126;47.472;7.850;2022-08-05T05:05:40;96420.44;;;21.08;100.00
32761;BME280;19126;47.472;7.850;2022-08-05T05:08:09;96418.41;;;21.16;100.00
32761;BME280;19126;47.472;7.850;2022-08-05T05:10:42;96416.28;;;21.18;100.00
32761;BME280;19126;47.472;7.850;2022-08-05T05:13:11;96428.16;;;21.27;100.00
32761;BME280;19126;47.472;7.850;2022-08-05T05:15:39;96435.19;;;21.33;100.00
32761;BME280;19126;47.472;7.850;2022-08-05T05:18:08;96445.94;;;21.38;99.99
32761;BME280;19126;47.472;7.850;2022-08-05T05:20:35;96443.88;;;21.46;98.82
32761;BME280;19126;47.472;7.850;2022-08-05T05:23:03;96448.06;;;21.59;100.00
32761;BME280;19126;47.472;7.850;2022-08-05T05:25:30;96455.97;;;21.71;100.00
32761;BME280;19126;47.472;7.850;2022-08-05T05:27:59;96477.28;;;21.88;100.00
32761;BME280;19126;47.472;7.850;2022-08-05T05:30:27;96500.03;;;22.13;100.00
32761;BME280;19126;47.472;7.850;2022-08-05T05:32:54;96522.47;;;22.39;98.01
32761;BME280;19126;47.472;7.850;2022-08-05T05:35:22;96526.88;;;22.78;86.74
32761;BME280;19126;47.472;7.850;2022-08-05T05:37:52;96519.59;;;23.06;81.50
32761;BME280;19126;47.472;7.850;2022-08-05T05:40:21;96513.56;;;23.21;78.22
32761;BME280;19126;47.472;7.850;2022-08-05T05:42:50;96514.06;;;23.18;78.58
32761;BME280;19126;47.472;7.850;2022-08-05T05:45:17;96504.16;;;23.18;79.85
32761;BME280;19126;47.472;7.850;2022-08-05T05:47:45;96513.75;;;23.14;80.52
32761;BME280;19126;47.472;7.850;2022-08-05T05:50:15;96527.25;;;23.24;80.21
32761;BME280;19126;47.472;7.850;2022-08-05T05:52:46;96541.09;;;23.49;79.44
32761;BME280;19126;47.472;7.850;2022-08-05T05:55:15;96534.03;;;23.85;77.21
32761;BME280;19126;47.472;7.850;2022-08-05T05:57:46;96516.91;;;23.92;75.42
32761;BME280;19126;47.472;7.850;2022-08-05T06:00:16;96521.59;;;24.38;74.58
32761;BME280;19126;47.472;7.850;2022-08-05T06:02:45;96518.97;;;24.90;73.97
32761;BME280;19126;47.472;7.850;2022-08-05T06:05:14;96528.88;;;25.46;73.16
32761;BME280;19126;47.472;7.850;2022-08-05T06:07:44;96529.28;;;25.89;70.09
32761;BME280;19126;47.472;7.850;2022-08-05T06:10:12;96541.22;;;26.33;68.29
32761;BME280;19126;47.472;7.850;2022-08-05T06:12:39;96540.25;;;26.09;66.12
32761;BME280;19126;47.472;7.850;2022-08-05T06:15:08;96537.88;;;25.97;67.15
32761;BME280;19126;47.472;7.850;2022-08-05T06:17:35;96540.59;;;25.86;65.68
32761;BME280;19126;47.472;7.850;2022-08-05T06:20:04;96543.84;;;25.78;68.28
32761;BME280;19126;47.472;7.850;2022-08-05T06:22:33;96537.44;;;25.69;69.27
32761;BME280;19126;47.472;7.850;2022-08-05T06:25:03;96541.75;;;25.65;68.12
32761;BME280;19126;47.472;7.850;2022-08-05T06:27:33;96537.22;;;25.60;68.08
32761;BME280;19126;47.472;7.850;2022-08-05T06:30:00;96539.63;;;25.56;68.76
32761;BME280;19126;47.472;7.850;2022-08-05T06:32:27;96540.47;;;25.47;68.92
32761;BME280;19126;47.472;7.850;2022-08-05T06:34:56;96549.84;;;25.39;68.84
32761;BME280;19126;47.472;7.850;2022-08-05T06:37:24;96542.34;;;25.30;69.22
32761;BME280;19126;47.472;7.850;2022-08-05T06:39:52;96542.09;;;25.27;70.72
32761;BME280;19126;47.472;7.850;2022-08-05T06:42:20;96542.84;;;25.38;71.85
32761;BME280;19126;47.472;7.850;2022-08-05T06:44:47;96538.56;;;25.42;70.34
32761;BME280;19126;47.472;7.850;2022-08-05T06:47:14;96554.66;;;25.63;72.17
32761;BME280;19126;47.472;7.850;2022-08-05T06:49:42;96555.31;;;26.20;69.89
32761;BME280;19126;47.472;7.850;2022-08-05T06:52:09;96557.28;;;26.94;67.31
32761;BME280;19126;47.472;7.850;2022-08-05T06:54:36;96553.19;;;27.31;64.24
32761;BME280;19126;47.472;7.850;2022-08-05T06:57:03;96562.84;;;27.38;62.23
32761;BME280;19126;47.472;7.850;2022-08-05T06:59:32;96565.53;;;27.38;61.14
32761;BME280;19126;47.472;7.850;2022-08-05T07:01:59;96573.78;;;27.52;60.16
32761;BME280;19126;47.472;7.850;2022-08-05T07:04:26;96582.72;;;27.47;62.25
32761;BME280;19126;47.472;7.850;2022-08-05T07:06:53;96589.38;;;27.25;60.99
32761;BME280;19126;47.472;7.850;2022-08-05T07:09:20;96598.19;;;27.36;61.60
32761;BME280;19126;47.472;7.850;2022-08-05T07:11:48;96594.88;;;27.44;60.14
32761;BME280;19126;47.472;7.850;2022-08-05T07:14:16;96592.31;;;27.88;57.92
32761;BME280;19126;47.472;7.850;2022-08-05T07:17:02;96605.44;;;28.24;55.17
32761;BME280;19126;47.472;7.850;2022-08-05T07:19:30;96604.66;;;28.62;55.11
32761;BME280;19126;47.472;7.850;2022-08-05T07:21:57;96598.75;;;28.98;55.07
32761;BME280;19126;47.472;7.850;2022-08-05T07:24:24;96596.84;;;29.32;54.69
32761;BME280;19126;47.472;7.850;2022-08-05T07:26:51;96598.97;;;29.35;53.48
32761;BME280;19126;47.472;7.850;2022-08-05T07:29:19;96606.00;;;29.36;52.46
32761;BME280;19126;47.472;7.850;2022-08-05T07:31:46;96605.66;;;29.57;52.04
32761;BME280;19126;47.472;7.850;2022-08-05T07:34:15;96603.25;;;29.55;51.38
32761;BME280;19126;47.472;7.850;2022-08-05T07:36:42;96596.47;;;29.72;51.17
32761;BME280;19126;47.472;7.850;2022-08-05T07:39:09;96601.59;;;30.29;52.32
32761;BME280;19126;47.472;7.850;2022-08-05T07:41:36;96607.44;;;30.22;49.52
32761;BME280;19126;47.472;7.850;2022-08-05T07:44:06;96615.72;;;30.68;52.03
32761;BME280;19126;47.472;7.850;2022-08-05T07:46:33;96607.41;;;30.64;48.64
32761;BME280;19126;47.472;7.850;2022-08-05T07:49:02;96612.47;;;30.80;48.63
32761;BME280;19126;47.472;7.850;2022-08-05T07:51:32;96613.66;;;30.88;49.92
32761;BME280;19126;47.472;7.850;2022-08-05T07:54:00;96611.81;;;31.20;50.16
32761;BME280;19126;47.472;7.850;2022-08-05T07:56:27;96612.19;;;31.27;48.17
32761;BME280;19126;47.472;7.850;2022-08-05T07:58:54;96616.97;;;31.53;48.84
32761;BME280;19126;47.472;7.850;2022-08-05T08:01:22;96626.94;;;31.35;48.09
32761;BME280;19126;47.472;7.850;2022-08-05T08:03:51;96631.03;;;31.55;47.22
32761;BME280;19126;47.472;7.850;2022-08-05T08:06:18;96632.09;;;30.99;47.27
32761;BME280;19126;47.472;7.850;2022-08-05T08:08:47;96621.63;;;31.07;48.22
32761;BME280;19126;47.472;7.850;2022-08-05T08:11:14;96625.03;;;30.48;47.41
32761;BME280;19126;47.472;7.850;2022-08-05T08:13:43;96632.19;;;30.44;49.41
32761;BME280;19126;47.472;7.850;2022-08-05T08:16:10;96630.81;;;30.18;49.39
32761;BME280;19126;47.472;7.850;2022-08-05T08:18:37;96638.00;;;29.95;50.56
32761;BME280;19126;47.472;7.850;2022-08-05T08:21:05;96633.47;;;29.76;51.56
32761;BME280;19126;47.472;7.850;2022-08-05T08:23:32;96638.09;;;29.76;50.84
32761;BME280;19126;47.472;7.850;2022-08-05T08:26:01;96630.66;;;29.67;52.02
32761;BME280;19126;47.472;7.850;2022-08-05T08:28:29;96630.34;;;29.69;51.76
32761;BME280;19126;47.472;7.850;2022-08-05T08:30:56;96629.94;;;29.62;52.48
32761;BME280;19126;47.472;7.850;2022-08-05T08:33:23;96623.81;;;29.37;52.61
32761;BME280;19126;47.472;7.850;2022-08-05T08:35:50;96628.63;;;29.26;53.56
32761;BME280;19126;47.472;7.850;2022-08-05T08:38:17;96626.38;;;29.47;53.99
32761;BME280;19126;47.472;7.850;2022-08-05T08:40:45;96628.81;;;29.63;53.97
32761;BME280;19126;47.472;7.850;2022-08-05T08:43:15;96634.28;;;29.77;53.14
32761;BME280;19126;47.472;7.850;2022-08-05T08:45:44;96621.16;;;29.84;52.91
32761;BME280;19126;47.472;7.850;2022-08-05T08:48:14;96623.06;;;29.97;53.94
32761;BME280;19126;47.472;7.850;2022-08-05T08:50:43;96626.75;;;29.74;52.86
32761;BME280;19126;47.472;7.850;2022-08-05T08:53:11;96622.38;;;29.45;53.37
32761;BME280;19126;47.472;7.850;2022-08-05T08:55:41;96634.03;;;29.26;54.20
32761;BME280;19126;47.472;7.850;2022-08-05T08:58:09;96620.34;;;29.17;55.61
32761;BME280;19126;47.472;7.850;2022-08-05T09:00:40;96613.81;;;29.37;56.00
32761;BME280;19126;47.472;7.850;2022-08-05T09:03:08;96616.22;;;29.86;53.90
32761;BME280;19126;47.472;7.850;2022-08-05T09:05:36;96613.34;;;30.10;52.61
32761;BME280;19126;47.472;7.850;2022-08-05T09:08:05;96611.94;;;30.13;54.38
32761;BME280;19126;47.472;7.850;2022-08-05T09:10:32;96614.44;;;30.09;52.24
32761;BME280;19126;47.472;7.850;2022-08-05T09:13:00;96612.22;;;29.97;54.92
32761;BME280;19126;47.472;7.850;2022-08-05T09:15:27;96612.34;;;30.06;51.83
32761;BME280;19126;47.472;7.850;2022-08-05T09:17:55;96604.69;;;29.94;51.65
32761;BME280;19126;47.472;7.850;2022-08-05T09:20:22;96605.47;;;29.67;51.46
32761;BME280;19126;47.472;7.850;2022-08-05T09:23:05;96611.06;;;30.04;54.87
32761;BME280;19126;47.472;7.850;2022-08-05T09:25:33;96605.44;;;30.79;51.70
32761;BME280;19126;47.472;7.850;2022-08-05T09:28:13;96613.16;;;31.08;49.41
32761;BME280;19126;47.472;7.850;2022-08-05T09:30:51;96612.41;;;31.31;50.26
32761;BME280;19126;47.472;7.850;2022-08-05T09:33:22;96613.59;;;31.02;48.62
32761;BME280;19126;47.472;7.850;2022-08-05T09:36:03;96606.13;;;31.07;48.87
32761;BME280;19126;47.472;7.850;2022-08-05T09:38:31;96610.53;;;30.94;49.09
32761;BME280;19126;47.472;7.850;2022-08-05T09:41:04;96597.88;;;31.12;50.12
32761;BME280;19126;47.472;7.850;2022-08-05T09:43:34;96589.22;;;31.24;48.17
32761;BME280;19126;47.472;7.850;2022-08-05T09:46:03;96594.47;;;31.52;48.26
32761;BME280;19126;47.472;7.850;2022-08-05T09:48:34;96584.69;;;32.23;49.25
32761;BME280;19126;47.472;7.850;2022-08-05T09:51:06;96580.59;;;32.79;46.12
32761;BME280;19126;47.472;7.850;2022-08-05T09:53:48;96569.53;;;33.37;44.49
32761;BME280;19126;47.472;7.850;2022-08-05T09:56:24;96566.88;;;33.67;43.68
32761;BME280;19126;47.472;7.850;2022-08-05T09:58:59;96568.72;;;34.23;42.85
32761;BME280;19126;47.472;7.850;2022-08-05T10:01:28;96568.09;;;34.68;43.63
32761;BME280;19126;47.472;7.850;2022-08-05T10:04:03;96567.09;;;34.73;41.77
32761;BME280;19126;47.472;7.850;2022-08-05T10:06:32;96563.56;;;34.94;41.07
32761;BME280;19126;47.472;7.850;2022-08-05T10:09:11;96555.28;;;34.17;40.18
32761;BME280;19126;47.472;7.850;2022-08-05T10:11:39;96556.34;;;34.89;41.68
32761;BME280;19126;47.472;7.850;2022-08-05T10:14:20;96550.91;;;35.10;40.78
32761;BME280;19126;47.472;7.850;2022-08-05T10:16:48;96552.44;;;35.45;39.06
32761;BME280;19126;47.472;7.850;2022-08-05T10:19:18;96552.19;;;34.91;39.60
32761;BME280;19126;47.472;7.850;2022-08-05T10:21:45;96547.03;;;35.11;39.87
32761;BME280;19126;47.472;7.850;2022-08-05T10:24:16;96547.16;;;35.15;39.43
32761;BME280;19126;47.472;7.850;2022-08-05T10:26:47;96539.56;;;34.66;40.57
32761;BME280;19126;47.472;7.850;2022-08-05T10:29:16;96535.72;;;34.37;40.45
32761;BME280;19126;47.472;7.850;2022-08-05T10:31:44;96534.50;;;33.74;41.62
32761;BME280;19126;47.472;7.850;2022-08-05T10:34:11;96534.88;;;34.24;41.91
32761;BME280;19126;47.472;7.850;2022-08-05T10:36:41;96535.31;;;34.04;39.85
32761;BME280;19126;47.472;7.850;2022-08-05T10:39:17;96536.94;;;34.90;40.28
32761;BME280;19126;47.472;7.850;2022-08-05T10:41:53;96536.63;;;34.71;39.42
32761;BME280;19126;47.472;7.850;2022-08-05T10:44:23;96534.50;;;34.98;37.87
32761;BME280;19126;47.472;7.850;2022-08-05T10:46:53;96530.09;;;34.63;38.25
32761;BME280;19126;47.472;7.850;2022-08-05T10:49:23;96522.38;;;34.65;39.52
32761;BME280;19126;47.472;7.850;2022-08-05T10:51:55;96519.16;;;34.42;38.97
32761;BME280;19126;47.472;7.850;2022-08-05T10:54:43;96515.84;;;34.36;38.92
32761;BME280;19126;47.472;7.850;2022-08-05T10:57:12;96514.16;;;35.20;40.53
32761;BME280;19126;47.472;7.850;2022-08-05T11:00:08;96514.19;;;34.86;38.09
32761;BME280;19126;47.472;7.850;2022-08-05T11:02:36;96509.59;;;35.12;39.88
32761;BME280;19126;47.472;7.850;2022-08-05T11:05:07;96513.16;;;34.57;38.25
32761;BME280;19126;47.472;7.850;2022-08-05T11:07:55;96506.53;;;33.86;38.84
32761;BME280;19126;47.472;7.850;2022-08-05T11:10:24;96507.06;;;33.79;40.03
32761;BME280;19126;47.472;7.850;2022-08-05T11:12:52;96517.53;;;33.68;42.54
32761;BME280;19126;47.472;7.850;2022-08-05T11:15:23;96511.66;;;33.57;40.47
32761;BME280;19126;47.472;7.850;2022-08-05T11:17:53;96510.00;;;33.26;41.01
32761;BME280;19126;47.472;7.850;2022-08-05T11:20:41;96507.91;;;33.23;40.51
32761;BME280;19126;47.472;7.850;2022-08-05T11:23:35;96505.53;;;33.13;41.85
32761;BME280;19126;47.472;7.850;2022-08-05T11:26:05;96517.38;;;33.08;40.69
32761;BME280;19126;47.472;7.850;2022-08-05T11:28:46;96521.56;;;32.88;42.32
32761;BME280;19126;47.472;7.850;2022-08-05T11:31:30;96527.81;;;32.62;42.79
32761;BME280;19126;47.472;7.850;2022-08-05T11:34:05;96524.28;;;32.88;43.68
32761;BME280;19126;47.472;7.850;2022-08-05T11:36:44;96522.53;;;32.92;42.23
32761;BME280;19126;47.472;7.850;2022-08-05T11:39:16;96525.72;;;32.94;43.05
32761;BME280;19126;47.472;7.850;2022-08-05T11:41:50;96522.34;;;33.06;42.75
32761;BME280;19126;47.472;7.850;2022-08-05T11:44:19;96525.84;;;33.72;42.45
32761;BME280;19126;47.472;7.850;2022-08-05T11:46:49;96524.28;;;34.22;40.30
32761;BME280;19126;47.472;7.850;2022-08-05T11:49:20;96520.59;;;34.69;41.02
32761;BME280;19126;47.472;7.850;2022-08-05T11:51:49;96517.81;;;35.24;39.54
32761;BME280;19126;47.472;7.850;2022-08-05T11:54:24;96509.47;;;35.67;37.80
32761;BME280;19126;47.472;7.850;2022-08-05T11:56:53;96517.09;;;35.61;35.96
32761;BME280;19126;47.472;7.850;2022-08-05T11:59:22;96516.41;;;35.05;39.17
32761;BME280;19126;47.472;7.850;2022-08-05T12:01:56;96515.63;;;34.84;36.92
32761;BME280;19126;47.472;7.850;2022-08-05T12:04:27;96507.31;;;35.60;38.06
32761;BME280;19126;47.472;7.850;2022-08-05T12:06:58;96513.56;;;35.73;36.20
32761;BME280;19126;47.472;7.850;2022-08-05T12:09:28;96499.06;;;36.22;37.56
32761;BME280;19126;47.472;7.850;2022-08-05T12:12:01;96506.09;;;36.35;36.24
32761;BME280;19126;47.472;7.850;2022-08-05T12:14:36;96504.78;;;36.17;36.46
32761;BME280;19126;47.472;7.850;2022-08-05T12:17:09;96495.69;;;35.88;35.87
32761;BME280;19126;47.472;7.850;2022-08-05T12:19:45;96492.03;;;35.84;34.96
32761;BME280;19126;47.472;7.850;2022-08-05T12:22:13;96490.63;;;35.15;36.05
32761;BME280;19126;47.472;7.850;2022-08-05T12:24:44;96497.31;;;35.18;35.99
32761;BME280;19126;47.472;7.850;2022-08-05T12:27:23;96492.16;;;34.70;36.96
32761;BME280;19126;47.472;7.850;2022-08-05T12:30:03;96476.19;;;33.96;36.04
32761;BME280;19126;47.472;7.850;2022-08-05T12:32:31;96475.72;;;33.94;37.79
32761;BME280;19126;47.472;7.850;2022-08-05T12:34:58;96476.53;;;33.95;36.70
32761;BME280;19126;47.472;7.850;2022-08-05T12:37:25;96477.94;;;34.01;36.86
32761;BME280;19126;47.472;7.850;2022-08-05T12:39:56;96473.00;;;33.94;38.54
32761;BME280;19126;47.472;7.850;2022-08-05T12:42:28;96474.66;;;33.86;37.88
32761;BME280;19126;47.472;7.850;2022-08-05T12:45:01;96467.31;;;33.78;40.11
32761;BME280;19126;47.472;7.850;2022-08-05T12:47:30;96461.44;;;33.67;38.47
32761;BME280;19126;47.472;7.850;2022-08-05T12:49:58;96459.22;;;33.30;38.47
32761;BME280;19126;47.472;7.850;2022-08-05T12:52:26;96451.97;;;33.35;38.90
32761;BME280;19126;47.472;7.850;2022-08-05T12:54:54;96450.16;;;33.56;39.25
32761;BME280;19126;47.472;7.850;2022-08-05T12:57:22;96451.63;;;33.75;41.02
32761;BME280;19126;47.472;7.850;2022-08-05T12:59:51;96444.69;;;34.08;40.87
32761;BME280;19126;47.472;7.850;2022-08-05T13:02:21;96446.50;;;34.03;40.00
32761;BME280;19126;47.472;7.850;2022-08-05T13:04:50;96439.59;;;34.06;38.75
32761;BME280;19126;47.472;7.850;2022-08-05T13:07:19;96432.25;;;34.61;39.73
32761;BME280;19126;47.472;7.850;2022-08-05T13:09:50;96438.31;;;35.26;37.44
32761;BME280;19126;47.472;7.850;2022-08-05T13:12:21;96435.34;;;35.81;37.93
32761;BME280;19126;47.472;7.850;2022-08-05T13:14:51;96434.25;;;36.22;37.64
32761;BME280;19126;47.472;7.850;2022-08-05T13:17:22;96437.63;;;36.60;36.68